ELLX/LUX METAR and TAF weather

Enter ICAO airport designator
Station Type Date Time Source
ELLX METAR 2020/09/20 06:50 UTC NOAA

ELLX 200650Z 05010KT CAVOK 16/06 Q1016 NOSIG


Station Type Date Time Source
ELLX Decoded METAR 2020/09/20 06:50 UTC NOAA

Luxembourg / Luxembourg, Luxembourg (ELLX) 49-37N 006-13E 379M
Sep 20, 2020 - 02:50 AM EDT / 2020.09.20 0650 UTC
Wind: from the NE (050 degrees) at 12 MPH (10 KT):0
Visibility: greater than 7 mile(s):0
Temperature: 60 F (16 C)
Dew Point: 42 F (6 C)
Relative Humidity: 51%
Pressure (altimeter): 30.00 in. Hg (1016 hPa)
ob: ELLX 200650Z 05010KT CAVOK 16/06 Q1016 NOSIG
cycle: 7

Station Type Date Time Source
ELLX TAF 2020/09/20 06:27 UTC NOAA

TAF ELLX 200500Z 2006/2112 06010KT CAVOK

Example: see airport list